createdAt,value
2019-05-02T00:01:05.677Z,100179.00
2019-05-02T00:03:41.118Z,100176.00
2019-05-02T00:06:09.317Z,100176.00
2019-05-02T00:08:39.592Z,100175.00
2019-05-02T00:11:12.111Z,100175.00
2019-05-02T00:13:41.785Z,100170.00
2019-05-02T00:16:14.038Z,100178.00
2019-05-02T00:18:43.174Z,100181.00
2019-05-02T00:21:13.425Z,100173.00
2019-05-02T00:23:43.424Z,100177.00
2019-05-02T00:26:13.691Z,100175.00
2019-05-02T00:28:48.071Z,100176.00
2019-05-02T00:31:14.820Z,100179.00
2019-05-02T00:33:44.515Z,100175.00
2019-05-02T00:36:14.180Z,100170.00
2019-05-02T00:38:44.822Z,100168.00
2019-05-02T00:41:14.707Z,100164.00
2019-05-02T00:43:44.368Z,100169.00
2019-05-02T00:46:14.085Z,100161.00
2019-05-02T00:48:59.609Z,100165.00
2019-05-02T00:51:28.141Z,100176.00
2019-05-02T00:53:59.931Z,100171.00
2019-05-02T00:56:30.019Z,100165.00
2019-05-02T00:59:02.272Z,100166.00
2019-05-02T01:01:33.073Z,100171.00
2019-05-02T01:04:10.418Z,100163.00
2019-05-02T01:06:40.034Z,100161.00
2019-05-02T01:09:12.871Z,100160.00
2019-05-02T01:11:42.360Z,100165.00
2019-05-02T01:14:12.039Z,100159.00
2019-05-02T01:16:41.698Z,100163.00
2019-05-02T01:19:12.172Z,100159.00
2019-05-02T01:21:42.798Z,100153.00
2019-05-02T01:24:12.539Z,100148.00
2019-05-02T01:26:46.579Z,100154.00
2019-05-02T01:29:17.888Z,100148.00
2019-05-02T01:31:49.890Z,100139.00
2019-05-02T01:34:27.020Z,100138.00
2019-05-02T01:36:58.331Z,100106.00
2019-05-02T01:39:28.149Z,100130.00
2019-05-02T01:41:59.894Z,100133.00
2019-05-02T01:44:31.202Z,100136.00
2019-05-02T01:47:01.702Z,100135.00
2019-05-02T01:49:31.389Z,100135.00
2019-05-02T01:52:01.120Z,100135.00
2019-05-02T01:54:30.797Z,100137.00
2019-05-02T01:57:04.036Z,100128.00
2019-05-02T01:59:33.967Z,100133.00
2019-05-02T02:02:03.354Z,100128.00
2019-05-02T02:04:34.503Z,100133.00
2019-05-02T02:07:04.683Z,100128.00
2019-05-02T02:09:34.348Z,100126.00
2019-05-02T02:12:04.951Z,100135.00
2019-05-02T02:14:35.358Z,100134.00
2019-05-02T02:17:05.040Z,100131.00
2019-05-02T02:19:40.595Z,100124.00
2019-05-02T02:22:12.280Z,100125.00
2019-05-02T02:24:43.593Z,100122.00
2019-05-02T02:27:13.289Z,100119.00
2019-05-02T02:29:44.104Z,100119.00
2019-05-02T02:32:19.927Z,100121.00
2019-05-02T02:34:45.775Z,100124.00
2019-05-02T02:37:15.451Z,100114.00
2019-05-02T02:39:48.710Z,100114.00
2019-05-02T02:42:16.732Z,100118.00
2019-05-02T02:44:48.030Z,100115.00
2019-05-02T02:47:18.722Z,100109.00
2019-05-02T02:49:49.236Z,100102.00
2019-05-02T02:52:18.835Z,100108.00
2019-05-02T02:54:48.501Z,100113.00
2019-05-02T02:57:25.993Z,100115.00
2019-05-02T02:59:49.657Z,100112.00
2019-05-02T03:02:19.330Z,100106.00
2019-05-02T03:04:49.325Z,100112.00
2019-05-02T03:07:25.803Z,100112.00
2019-05-02T03:09:53.254Z,100105.00
2019-05-02T03:12:24.597Z,100110.00
2019-05-02T03:14:58.950Z,100102.00
2019-05-02T03:17:29.005Z,100114.00
2019-05-02T03:20:01.819Z,100098.00
2019-05-02T03:22:34.969Z,100104.00
2019-05-02T03:25:04.542Z,100107.00
2019-05-02T03:27:37.350Z,100100.00
2019-05-02T03:30:08.198Z,100101.00
2019-05-02T03:32:37.845Z,100106.00
2019-05-02T03:35:07.538Z,100097.00
2019-05-02T03:37:37.205Z,100091.00
2019-05-02T03:40:07.474Z,100087.00
2019-05-02T03:42:44.573Z,100091.00
2019-05-02T03:45:08.997Z,100079.00
2019-05-02T03:47:43.925Z,100089.00
2019-05-02T03:50:12.360Z,100084.00
2019-05-02T03:52:46.197Z,100080.00
2019-05-02T03:55:16.600Z,100085.00
2019-05-02T03:57:46.682Z,100080.00
2019-05-02T04:00:20.974Z,100079.00
2019-05-02T04:02:59.169Z,100074.00
2019-05-02T04:05:22.103Z,100079.00
2019-05-02T04:07:53.479Z,100088.00
2019-05-02T04:10:52.693Z,100079.00
2019-05-02T04:13:18.509Z,100070.00
2019-05-02T04:15:49.334Z,100070.00
2019-05-02T04:18:20.592Z,100081.00
2019-05-02T04:20:52.165Z,100079.00
2019-05-02T04:23:27.870Z,100080.00
2019-05-02T04:25:55.986Z,100077.00
2019-05-02T04:28:25.963Z,100068.00
2019-05-02T04:30:58.041Z,100074.00
2019-05-02T04:33:29.237Z,100080.00
2019-05-02T04:35:59.755Z,100086.00
2019-05-02T04:38:39.313Z,100079.00
2019-05-02T04:41:01.018Z,100083.00
2019-05-02T04:43:30.670Z,100082.00
2019-05-02T04:46:00.437Z,100090.00
2019-05-02T04:48:34.725Z,100084.00
2019-05-02T04:51:10.122Z,100082.00
2019-05-02T04:53:41.004Z,100085.00
2019-05-02T04:56:09.711Z,100086.00
2019-05-02T04:58:39.735Z,100086.00
2019-05-02T05:01:09.908Z,100086.00
2019-05-02T05:03:38.493Z,100095.00
2019-05-02T05:06:12.189Z,100099.00
2019-05-02T05:08:41.691Z,100084.00
2019-05-02T05:11:13.948Z,100088.00
2019-05-02T05:13:44.212Z,100089.00
2019-05-02T05:16:18.564Z,100097.00
2019-05-02T05:18:49.354Z,100102.00
2019-05-02T05:21:19.520Z,100092.00
2019-05-02T05:24:01.016Z,100102.00
2019-05-02T05:26:33.890Z,100099.00
2019-05-02T05:29:00.935Z,100113.00
2019-05-02T05:31:30.612Z,100108.00
2019-05-02T05:34:00.303Z,100100.00
2019-05-02T05:36:33.878Z,100107.00
2019-05-02T05:39:03.045Z,100111.00
2019-05-02T05:41:34.226Z,100104.00
2019-05-02T05:44:03.911Z,100103.00
2019-05-02T05:46:38.030Z,100100.00
2019-05-02T05:49:04.964Z,100109.00
2019-05-02T05:51:34.652Z,100103.00
2019-05-02T05:54:04.658Z,100107.00
2019-05-02T05:56:39.776Z,100111.00
2019-05-02T05:59:07.764Z,100107.00
2019-05-02T06:01:39.163Z,100101.00
2019-05-02T06:04:09.332Z,100100.00
2019-05-02T06:06:39.277Z,100098.00
2019-05-02T06:09:09.752Z,100100.00
2019-05-02T06:11:39.445Z,100107.00
2019-05-02T06:14:09.254Z,100095.00
2019-05-02T06:16:39.308Z,100091.00
2019-05-02T06:19:13.002Z,100096.00
2019-05-02T06:21:45.162Z,100091.00
2019-05-02T06:24:15.692Z,100087.00
2019-05-02T06:26:49.821Z,100091.00
2019-05-02T06:29:20.827Z,100081.00
2019-05-02T06:31:49.983Z,100086.00
2019-05-02T06:34:19.693Z,100082.00
2019-05-02T06:36:49.547Z,100077.00
2019-05-02T06:39:19.225Z,100073.00
2019-05-02T06:41:52.039Z,100081.00
2019-05-02T06:44:24.133Z,100077.00
2019-05-02T06:46:53.465Z,100089.00
2019-05-02T06:49:24.887Z,100078.00
2019-05-02T06:51:56.344Z,100080.00
2019-05-02T06:54:26.084Z,100085.00
2019-05-02T06:56:55.773Z,100076.00
2019-05-02T06:59:25.553Z,100085.00
2019-05-02T07:01:57.544Z,100075.00
2019-05-02T07:04:26.968Z,100083.00
2019-05-02T07:06:59.225Z,100096.00
2019-05-02T07:09:39.866Z,100083.00
2019-05-02T07:12:01.476Z,100077.00
2019-05-02T07:14:30.904Z,100082.00
2019-05-02T07:17:18.368Z,100074.00
2019-05-02T07:19:49.676Z,100070.00
2019-05-02T07:22:19.843Z,100052.00
2019-05-02T07:24:49.459Z,100065.00
2019-05-02T07:27:19.143Z,100081.00
2019-05-02T07:29:52.048Z,100073.00
2019-05-02T07:32:24.598Z,100059.00
2019-05-02T07:34:51.659Z,100069.00
2019-05-02T07:37:21.336Z,100060.00
2019-05-02T07:39:51.018Z,100087.00
2019-05-02T07:42:20.697Z,100070.00
2019-05-02T07:44:50.491Z,100066.00
2019-05-02T07:47:20.179Z,100064.00
2019-05-02T07:49:49.859Z,100065.00
2019-05-02T07:52:19.528Z,100040.00
2019-05-02T07:54:56.130Z,100063.00
2019-05-02T07:57:25.371Z,100066.00
2019-05-02T08:00:00.686Z,100063.00
2019-05-02T08:02:26.585Z,100065.00
2019-05-02T08:04:56.264Z,100060.00
2019-05-02T08:07:33.872Z,100066.00
2019-05-02T08:09:58.854Z,100058.00
2019-05-02T08:12:28.520Z,100062.00
2019-05-02T08:15:00.361Z,100058.00
2019-05-02T08:17:29.611Z,100058.00
2019-05-02T08:19:59.269Z,100057.00
2019-05-02T08:22:28.949Z,100053.00
2019-05-02T08:24:58.695Z,100047.00
2019-05-02T08:27:34.538Z,100055.00
2019-05-02T08:30:04.378Z,100037.00
2019-05-02T08:32:33.062Z,100041.00
2019-05-02T08:35:02.881Z,100034.00
2019-05-02T08:37:35.365Z,100053.00
2019-05-02T08:40:10.491Z,100050.00
2019-05-02T08:42:40.113Z,100039.00
2019-05-02T08:45:10.673Z,100044.00
2019-05-02T08:47:40.365Z,100042.00
2019-05-02T08:50:10.250Z,100051.00
2019-05-02T08:52:42.375Z,100044.00
2019-05-02T08:55:12.214Z,100038.00
2019-05-02T08:57:41.877Z,100037.00
2019-05-02T09:00:26.972Z,100041.00
2019-05-02T09:02:57.169Z,100054.00
2019-05-02T09:05:28.035Z,100032.00
2019-05-02T09:07:57.737Z,100043.00
2019-05-02T09:10:27.399Z,100039.00
2019-05-02T09:12:57.062Z,100038.00
2019-05-02T09:15:31.665Z,100045.00
2019-05-02T09:18:02.702Z,100047.00
2019-05-02T09:20:32.251Z,100043.00
2019-05-02T09:23:02.046Z,100046.00
2019-05-02T09:25:32.461Z,100036.00
2019-05-02T09:28:02.191Z,100045.00
2019-05-02T09:30:32.727Z,100045.00
2019-05-02T09:33:06.500Z,100030.00
2019-05-02T09:35:35.533Z,100032.00
2019-05-02T09:38:05.220Z,100041.00
2019-05-02T09:40:34.899Z,100038.00
2019-05-02T09:43:04.885Z,100030.00
2019-05-02T09:45:41.042Z,100042.00
2019-05-02T09:48:09.393Z,100026.00
2019-05-02T09:50:39.056Z,100041.00
2019-05-02T09:53:13.170Z,100023.00
2019-05-02T09:55:42.048Z,100032.00
2019-05-02T09:58:19.633Z,100031.00
2019-05-02T10:00:53.083Z,100033.00
2019-05-02T10:03:22.848Z,100035.00
2019-05-02T10:05:53.436Z,100015.00
2019-05-02T10:08:23.391Z,100016.00
2019-05-02T10:10:55.551Z,100010.00
2019-05-02T10:13:31.842Z,100020.00
2019-05-02T10:16:02.147Z,100024.00
2019-05-02T10:18:33.009Z,100018.00
2019-05-02T10:21:03.187Z,100016.00
2019-05-02T10:23:33.026Z,100014.00
2019-05-02T10:26:05.205Z,100014.00
2019-05-02T10:28:34.894Z,100022.00
2019-05-02T10:31:04.863Z,100024.00
2019-05-02T10:33:37.545Z,100012.00
2019-05-02T10:36:06.424Z,100013.00
2019-05-02T10:38:36.098Z,100007.00
2019-05-02T10:41:05.771Z,100012.00
2019-05-02T10:43:35.475Z,100010.00
2019-05-02T10:46:09.208Z,100005.00
2019-05-02T10:48:42.121Z,100013.00
2019-05-02T10:51:26.219Z,100021.00
2019-05-02T10:53:56.748Z,100017.00
2019-05-02T10:56:26.485Z,100012.00
2019-05-02T10:58:56.185Z,100025.00
2019-05-02T11:01:27.906Z,100006.00
2019-05-02T11:03:59.216Z,100007.00
2019-05-02T11:06:32.404Z,100001.00
2019-05-02T11:09:07.449Z,100007.00
2019-05-02T11:11:37.218Z,99985.00
2019-05-02T11:14:15.020Z,100001.00
2019-05-02T11:16:56.891Z,100009.00
2019-05-02T11:19:31.814Z,99998.00
2019-05-02T11:22:05.231Z,99993.00
2019-05-02T11:24:34.903Z,99996.00
2019-05-02T11:27:08.022Z,99997.00
2019-05-02T11:29:36.636Z,99999.00
2019-05-02T11:32:06.424Z,100000.00
2019-05-02T11:34:36.075Z,100000.00
2019-05-02T11:37:05.963Z,99989.00
2019-05-02T11:39:45.157Z,100001.00
2019-05-02T11:42:07.028Z,99998.00
2019-05-02T11:44:36.711Z,99995.00
2019-05-02T11:47:06.367Z,99996.00
2019-05-02T11:49:36.306Z,99996.00
2019-05-02T11:52:07.267Z,100006.00
2019-05-02T11:54:39.297Z,99992.00
2019-05-02T11:57:12.813Z,99999.00
2019-05-02T11:59:42.579Z,99989.00
2019-05-02T12:02:32.003Z,99992.00
2019-05-02T12:05:02.088Z,99984.00
2019-05-02T12:07:32.471Z,99990.00
2019-05-02T12:10:04.575Z,99983.00
2019-05-02T12:12:36.275Z,99981.00
2019-05-02T12:15:06.952Z,99980.00
2019-05-02T12:17:37.743Z,99996.00
2019-05-02T12:20:28.588Z,99983.00
2019-05-02T12:22:58.141Z,99994.00
2019-05-02T12:25:27.758Z,99995.00
2019-05-02T12:27:57.433Z,99995.00
2019-05-02T12:30:28.925Z,99999.00
2019-05-02T12:32:58.511Z,99991.00
2019-05-02T12:35:28.309Z,99980.00
2019-05-02T12:37:59.971Z,99998.00
2019-05-02T12:40:29.917Z,100000.00
2019-05-02T12:42:59.608Z,100005.00
2019-05-02T12:45:29.352Z,100002.00
2019-05-02T12:47:59.014Z,100000.00
2019-05-02T12:50:28.984Z,100000.00
2019-05-02T12:52:58.656Z,99997.00
2019-05-02T12:55:28.305Z,99997.00
2019-05-02T12:57:58.011Z,99996.00
2019-05-02T13:00:27.648Z,100000.00
2019-05-02T13:03:14.151Z,100000.00
2019-05-02T13:05:43.828Z,99999.00
2019-05-02T13:08:13.495Z,99991.00
2019-05-02T13:11:02.405Z,99975.00
2019-05-02T13:13:32.740Z,99972.00
2019-05-02T13:16:03.870Z,99967.00
2019-05-02T13:18:37.122Z,99966.00
2019-05-02T13:21:08.197Z,99956.00
2019-05-02T13:23:40.008Z,99957.00
2019-05-02T13:26:19.693Z,99957.00
2019-05-02T13:28:44.197Z,99959.00
2019-05-02T13:31:16.063Z,99963.00
2019-05-02T13:33:47.482Z,99959.00
2019-05-02T13:36:42.525Z,99963.00
2019-05-02T13:39:19.258Z,99963.00
2019-05-02T13:41:49.279Z,99968.00
2019-05-02T13:44:37.180Z,99962.00
2019-05-02T13:47:08.590Z,99965.00
2019-05-02T13:49:53.238Z,99956.00
2019-05-02T13:52:14.122Z,99956.00
2019-05-02T13:54:43.791Z,99938.00
2019-05-02T13:57:14.900Z,99941.00
2019-05-02T13:59:44.571Z,99938.00
2019-05-02T14:02:40.141Z,99939.00
2019-05-02T14:05:12.965Z,99939.00
2019-05-02T14:07:48.163Z,99921.00
2019-05-02T14:10:39.447Z,99924.00
2019-05-02T14:13:07.718Z,99919.00
2019-05-02T14:15:39.238Z,99891.00
2019-05-02T14:18:08.924Z,99911.00
2019-05-02T14:20:38.903Z,99908.00
2019-05-02T14:23:09.155Z,99918.00
2019-05-02T14:25:38.831Z,99918.00
2019-05-02T14:28:08.501Z,99905.00
2019-05-02T14:30:43.269Z,99903.00
2019-05-02T14:33:11.786Z,99902.00
2019-05-02T14:35:42.620Z,99916.00
2019-05-02T14:38:16.180Z,99915.00
2019-05-02T14:40:49.579Z,99915.00
2019-05-02T14:43:38.144Z,99937.00
2019-05-02T14:46:12.448Z,99929.00
2019-05-02T14:48:45.201Z,99933.00
2019-05-02T14:51:16.602Z,99912.00
2019-05-02T14:53:45.995Z,99916.00
2019-05-02T14:56:29.120Z,99919.00
2019-05-02T14:58:58.775Z,99910.00
2019-05-02T15:01:28.621Z,99905.00
2019-05-02T15:04:03.133Z,99909.00
2019-05-02T15:06:33.002Z,99909.00
2019-05-02T15:09:02.418Z,99915.00
2019-05-02T15:11:34.828Z,99912.00
2019-05-02T15:14:05.750Z,99901.00
2019-05-02T15:16:42.201Z,99906.00
2019-05-02T15:19:06.894Z,99914.00
2019-05-02T15:21:46.897Z,99899.00
2019-05-02T15:24:13.834Z,99915.00
2019-05-02T15:26:43.673Z,99917.00
2019-05-02T15:29:19.659Z,99917.00
2019-05-02T15:32:08.183Z,99918.00
2019-05-02T15:34:54.475Z,99929.00
2019-05-02T15:37:25.924Z,99912.00
2019-05-02T15:42:27.230Z,99909.00
2019-05-02T15:45:02.008Z,99929.00
2019-05-02T15:47:31.987Z,99919.00
2019-05-02T15:50:02.983Z,99917.00
2019-05-02T15:52:34.545Z,99922.00
2019-05-02T15:55:07.260Z,99912.00
2019-05-02T15:57:42.973Z,99918.00
2019-05-02T16:00:15.495Z,99919.00
2019-05-02T16:02:42.765Z,99923.00
2019-05-02T16:05:14.191Z,99910.00
2019-05-02T16:07:46.666Z,99916.00
2019-05-02T16:10:15.668Z,99894.00
2019-05-02T16:12:46.963Z,99906.00
2019-05-02T16:15:21.403Z,99895.00
2019-05-02T16:17:49.621Z,99912.00
2019-05-02T16:20:40.434Z,99906.00
2019-05-02T16:23:08.627Z,99912.00
2019-05-02T16:25:38.313Z,99920.00
2019-05-02T16:28:09.188Z,99915.00
2019-05-02T16:30:44.220Z,99919.00
2019-05-02T16:33:17.424Z,99930.00
2019-05-02T16:35:46.380Z,99941.00
2019-05-02T16:38:14.763Z,99929.00
2019-05-02T16:40:45.735Z,99935.00
2019-05-02T16:43:15.382Z,99921.00
2019-05-02T16:45:45.380Z,99929.00
2019-05-02T16:48:15.526Z,99938.00
2019-05-02T16:50:45.206Z,99946.00
2019-05-02T16:53:17.140Z,99932.00
2019-05-02T16:55:46.741Z,99933.00
2019-05-02T16:58:16.408Z,99921.00
2019-05-02T17:00:46.128Z,99930.00
2019-05-02T17:03:17.436Z,99929.00
2019-05-02T17:05:49.415Z,99925.00
2019-05-02T17:08:26.016Z,99929.00
2019-05-02T17:10:57.461Z,99937.00
2019-05-02T17:13:32.070Z,99943.00
2019-05-02T17:15:58.950Z,99944.00
2019-05-02T17:18:28.611Z,99953.00
2019-05-02T17:20:58.269Z,99949.00
2019-05-02T17:23:27.939Z,99953.00
2019-05-02T17:25:57.607Z,99949.00
2019-05-02T17:28:27.274Z,99924.00
2019-05-02T17:30:57.085Z,99910.00
2019-05-02T17:33:26.746Z,99922.00
2019-05-02T17:35:56.438Z,99906.00
2019-05-02T17:38:29.186Z,99914.00
2019-05-02T17:41:03.867Z,99914.00
2019-05-02T17:43:30.495Z,99917.00
2019-05-02T17:46:00.181Z,99913.00
2019-05-02T17:48:31.863Z,99921.00
2019-05-02T17:51:08.989Z,99910.00
2019-05-02T17:53:41.307Z,99916.00
2019-05-02T17:56:13.064Z,99934.00
2019-05-02T17:58:47.379Z,99930.00
2019-05-02T18:01:14.636Z,99929.00
2019-05-02T18:03:44.562Z,99940.00
2019-05-02T18:06:17.241Z,99942.00
2019-05-02T18:08:46.272Z,99943.00
2019-05-02T18:11:17.045Z,99945.00
2019-05-02T18:13:46.741Z,99943.00
2019-05-02T18:16:17.571Z,99960.00
2019-05-02T18:18:47.657Z,99953.00
2019-05-02T18:21:24.818Z,99961.00
2019-05-02T18:23:48.714Z,99953.00
2019-05-02T18:26:18.467Z,99962.00
2019-05-02T18:28:49.395Z,99968.00
2019-05-02T18:31:19.292Z,99967.00
2019-05-02T18:33:49.016Z,99962.00
2019-05-02T18:36:24.739Z,99965.00
2019-05-02T18:38:54.243Z,99955.00
2019-05-02T18:41:22.425Z,99964.00
2019-05-02T18:43:52.276Z,99965.00
2019-05-02T18:46:22.283Z,99956.00
2019-05-02T18:48:52.079Z,99961.00
2019-05-02T18:51:22.162Z,99961.00
2019-05-02T18:53:57.893Z,99970.00
2019-05-02T18:56:25.282Z,99968.00
2019-05-02T18:58:56.174Z,99969.00
2019-05-02T19:01:26.137Z,99973.00
2019-05-02T19:03:56.314Z,99968.00
2019-05-02T19:06:27.895Z,99971.00
2019-05-02T19:09:02.130Z,99975.00
2019-05-02T19:11:35.259Z,99968.00
2019-05-02T19:14:05.279Z,99984.00
2019-05-02T19:16:35.461Z,99980.00
2019-05-02T19:19:05.724Z,99979.00
2019-05-02T19:21:39.223Z,99983.00
2019-05-02T19:24:07.518Z,99984.00
2019-05-02T19:26:41.724Z,99986.00
2019-05-02T19:29:17.206Z,99984.00
2019-05-02T19:31:46.571Z,99982.00
2019-05-02T19:34:21.801Z,99984.00
2019-05-02T19:36:49.311Z,99995.00
2019-05-02T19:39:18.971Z,99998.00
2019-05-02T19:41:48.622Z,100001.00
2019-05-02T19:44:21.446Z,99999.00
2019-05-02T19:46:51.839Z,100003.00
2019-05-02T19:49:25.347Z,100011.00
2019-05-02T19:51:56.306Z,100005.00
2019-05-02T19:54:25.670Z,99976.00
2019-05-02T19:56:56.883Z,100018.00
2019-05-02T19:59:29.432Z,100028.00
2019-05-02T20:02:02.585Z,100029.00
2019-05-02T20:04:29.349Z,100018.00
2019-05-02T20:06:59.480Z,100028.00
2019-05-02T20:09:29.153Z,100025.00
2019-05-02T20:12:07.592Z,100026.00
2019-05-02T20:14:32.907Z,100044.00
2019-05-02T20:17:03.069Z,100045.00
2019-05-02T20:19:34.871Z,100045.00
2019-05-02T20:22:06.784Z,100052.00
2019-05-02T20:25:00.177Z,100042.00
2019-05-02T20:27:28.910Z,100055.00
2019-05-02T20:29:58.715Z,100057.00
2019-05-02T20:32:28.741Z,100056.00
2019-05-02T20:34:58.446Z,100063.00
2019-05-02T20:37:28.090Z,100059.00
2019-05-02T20:39:57.906Z,100061.00
2019-05-02T20:42:27.565Z,100058.00
2019-05-02T20:44:57.235Z,100061.00
2019-05-02T20:47:27.821Z,100048.00
2019-05-02T20:49:57.530Z,100047.00
2019-05-02T20:52:27.193Z,100053.00
2019-05-02T20:54:56.882Z,100057.00
2019-05-02T20:57:26.589Z,100060.00
2019-05-02T20:59:57.937Z,100061.00
2019-05-02T21:02:27.655Z,100059.00
2019-05-02T21:04:58.596Z,100058.00
2019-05-02T21:07:33.159Z,100056.00
2019-05-02T21:10:04.945Z,100057.00
2019-05-02T21:12:34.705Z,100064.00
2019-05-02T21:15:06.246Z,100063.00
2019-05-02T21:17:35.936Z,100066.00
2019-05-02T21:20:08.873Z,100062.00
2019-05-02T21:22:42.172Z,100062.00
2019-05-02T21:25:12.997Z,100075.00
2019-05-02T21:27:42.862Z,100077.00
2019-05-02T21:30:13.715Z,100083.00
2019-05-02T21:32:43.398Z,100080.00
2019-05-02T21:35:13.660Z,100080.00
2019-05-02T21:37:44.089Z,100083.00
2019-05-02T21:40:15.247Z,100090.00
2019-05-02T21:42:51.818Z,100083.00
2019-05-02T21:45:22.548Z,100078.00
2019-05-02T21:47:53.341Z,100075.00
2019-05-02T21:50:24.678Z,100076.00
2019-05-02T21:53:15.516Z,100084.00
2019-05-02T21:55:47.136Z,100080.00
2019-05-02T21:58:17.985Z,100082.00
2019-05-02T22:00:54.193Z,100085.00
2019-05-02T22:03:25.026Z,100088.00
2019-05-02T22:05:56.417Z,100097.00
2019-05-02T22:08:28.558Z,100092.00
2019-05-02T22:10:59.170Z,100094.00
2019-05-02T22:13:32.500Z,100090.00
2019-05-02T22:16:04.738Z,100087.00
2019-05-02T22:18:34.646Z,100091.00
2019-05-02T22:21:05.348Z,100090.00
2019-05-02T22:23:36.309Z,100096.00
2019-05-02T22:26:05.994Z,100092.00
2019-05-02T22:28:39.136Z,100097.00
2019-05-02T22:31:09.545Z,100110.00
2019-05-02T22:33:44.300Z,100098.00
2019-05-02T22:36:14.649Z,100105.00
2019-05-02T22:38:55.788Z,100103.00
2019-05-02T22:41:25.584Z,100099.00
2019-05-02T22:43:55.248Z,100100.00
2019-05-02T22:46:43.669Z,100099.00
2019-05-02T22:49:15.500Z,100107.00
2019-05-02T22:51:45.547Z,100106.00
2019-05-02T22:54:26.669Z,100113.00
2019-05-02T22:56:46.768Z,100080.00
2019-05-02T22:59:16.450Z,100116.00
2019-05-02T23:01:47.726Z,100112.00
2019-05-02T23:04:17.380Z,100108.00
2019-05-02T23:06:47.068Z,100115.00
2019-05-02T23:09:18.525Z,100108.00
2019-05-02T23:11:48.193Z,100108.00
2019-05-02T23:14:19.197Z,100111.00
2019-05-02T23:16:48.919Z,100109.00
2019-05-02T23:19:18.597Z,100115.00
2019-05-02T23:21:48.247Z,100119.00
2019-05-02T23:24:19.586Z,100110.00
2019-05-02T23:26:51.805Z,100111.00
2019-05-02T23:29:22.572Z,100108.00
2019-05-02T23:31:52.487Z,100110.00
2019-05-02T23:34:23.598Z,100118.00
2019-05-02T23:36:53.536Z,100117.00
2019-05-02T23:39:23.302Z,100122.00
2019-05-02T23:41:52.955Z,100119.00
2019-05-02T23:44:22.925Z,100114.00
2019-05-02T23:46:52.879Z,100118.00
2019-05-02T23:49:22.545Z,100124.00
2019-05-02T23:51:53.092Z,100124.00
2019-05-02T23:54:23.465Z,100120.00
2019-05-02T23:56:53.130Z,100124.00
2019-05-02T23:59:22.801Z,100120.00
